createdAt,value
2018-12-09T00:00:50.942Z,118.83
2018-12-09T00:03:19.907Z,123.43
2018-12-09T00:05:48.936Z,106.13
2018-12-09T00:08:17.861Z,109.47
2018-12-09T00:10:46.785Z,99.40
2018-12-09T00:13:15.800Z,96.93
2018-12-09T00:15:44.704Z,106.80
2018-12-09T00:18:13.579Z,102.80
2018-12-09T00:20:42.482Z,111.17
2018-12-09T00:23:11.392Z,110.93
2018-12-09T00:25:40.288Z,107.10
2018-12-09T00:28:09.200Z,97.37
2018-12-09T00:30:38.230Z,98.13
2018-12-09T00:33:07.289Z,98.00
2018-12-09T00:35:36.322Z,90.80
2018-12-09T00:38:05.197Z,98.27
2018-12-09T00:40:34.102Z,93.43
2018-12-09T00:43:04.056Z,100.40
2018-12-09T00:45:32.972Z,105.43
2018-12-09T00:48:01.868Z,105.93
2018-12-09T00:50:30.989Z,117.53
2018-12-09T00:53:00.029Z,119.03
2018-12-09T00:55:28.973Z,117.10
2018-12-09T00:57:58.384Z,117.10
2018-12-09T01:00:27.309Z,107.73
2018-12-09T01:02:56.213Z,118.33
2018-12-09T01:05:25.119Z,115.87
2018-12-09T01:07:54.036Z,114.30
2018-12-09T01:10:22.950Z,130.60
2018-12-09T01:12:52.069Z,112.67
2018-12-09T01:15:21.015Z,120.00
2018-12-09T01:17:50.327Z,125.13
2018-12-09T01:20:19.273Z,130.20
2018-12-09T01:22:48.093Z,142.93
2018-12-09T01:25:16.977Z,133.30
2018-12-09T01:27:45.899Z,128.57
2018-12-09T01:30:14.897Z,131.10
2018-12-09T01:32:44.205Z,129.57
2018-12-09T01:35:13.133Z,128.17
2018-12-09T01:37:42.032Z,122.47
2018-12-09T01:40:10.934Z,123.90
2018-12-09T01:42:39.842Z,123.87
2018-12-09T01:45:08.779Z,119.20
2018-12-09T01:47:38.114Z,113.10
2018-12-09T01:50:07.168Z,118.87
2018-12-09T01:52:36.193Z,110.93
2018-12-09T01:55:05.172Z,109.00
2018-12-09T01:57:34.073Z,112.03
2018-12-09T02:00:03.254Z,107.83
2018-12-09T02:02:32.268Z,110.63
2018-12-09T02:05:01.254Z,111.87
2018-12-09T02:07:30.417Z,107.20
2018-12-09T02:09:59.548Z,110.00
2018-12-09T02:12:28.377Z,99.80
2018-12-09T02:14:57.496Z,102.33
2018-12-09T02:17:26.520Z,107.47
2018-12-09T02:19:55.868Z,109.37
2018-12-09T02:22:24.869Z,97.93
2018-12-09T02:24:53.905Z,92.00
2018-12-09T02:27:22.801Z,89.53
2018-12-09T02:29:51.693Z,86.20
2018-12-09T02:32:20.617Z,88.40
2018-12-09T02:34:52.237Z,85.70
2018-12-09T02:37:21.293Z,81.37
2018-12-09T02:39:50.838Z,74.87
2018-12-09T02:42:19.850Z,76.83
2018-12-09T02:44:48.777Z,78.50
2018-12-09T02:47:17.737Z,83.10
2018-12-09T02:49:46.644Z,79.60
2018-12-09T02:52:15.583Z,78.33
2018-12-09T02:54:44.583Z,84.67
2018-12-09T02:57:13.593Z,80.77
2018-12-09T02:59:42.424Z,77.67
2018-12-09T03:02:11.700Z,75.17
2018-12-09T03:04:40.752Z,78.03
2018-12-09T03:07:09.664Z,79.60
2018-12-09T03:09:38.548Z,80.77
2018-12-09T03:12:07.640Z,83.37
2018-12-09T03:14:36.599Z,78.13
2018-12-09T03:17:05.523Z,86.07
2018-12-09T03:19:34.453Z,85.03
2018-12-09T03:22:03.459Z,82.80
2018-12-09T03:24:32.696Z,86.80
2018-12-09T03:27:01.731Z,91.33
2018-12-09T03:29:30.761Z,84.57
2018-12-09T03:31:59.680Z,84.50
2018-12-09T03:34:28.636Z,79.93
2018-12-09T03:36:57.537Z,80.03
2018-12-09T03:39:26.491Z,81.97
2018-12-09T03:41:55.415Z,88.37
2018-12-09T03:44:24.312Z,85.13
2018-12-09T03:46:53.943Z,77.33
2018-12-09T03:49:22.961Z,85.90
2018-12-09T03:51:51.861Z,88.60
2018-12-09T03:54:20.772Z,77.77
2018-12-09T03:56:49.685Z,86.00
2018-12-09T03:59:18.674Z,87.03
2018-12-09T04:01:47.587Z,76.90
2018-12-09T04:04:16.538Z,75.83
2018-12-09T04:06:45.456Z,73.23
2018-12-09T04:09:14.842Z,74.10
2018-12-09T04:11:43.849Z,75.33
2018-12-09T04:14:12.795Z,75.33
2018-12-09T04:16:41.750Z,72.70
2018-12-09T04:19:10.665Z,73.93
2018-12-09T04:21:39.606Z,71.87
2018-12-09T04:24:08.429Z,69.20
2018-12-09T04:26:37.325Z,74.53
2018-12-09T04:29:06.238Z,73.93
2018-12-09T04:31:35.574Z,70.27
2018-12-09T04:34:04.580Z,78.13
2018-12-09T04:36:33.505Z,74.10
2018-12-09T04:39:02.556Z,77.00
2018-12-09T04:41:31.615Z,80.50
2018-12-09T04:44:00.424Z,82.47
2018-12-09T04:46:29.353Z,76.63
2018-12-09T04:48:58.441Z,75.20
2018-12-09T04:51:37.345Z,75.70
2018-12-09T04:54:06.338Z,79.37
2018-12-09T04:56:35.258Z,83.50
2018-12-09T04:59:17.477Z,88.00
2018-12-09T05:01:46.758Z,79.27
2018-12-09T05:04:15.910Z,83.60
2018-12-09T05:06:44.847Z,77.80
2018-12-09T05:09:13.857Z,83.60
2018-12-09T05:11:42.798Z,78.37
2018-12-09T05:14:11.734Z,74.97
2018-12-09T05:16:40.665Z,67.87
2018-12-09T05:19:09.649Z,70.67
2018-12-09T05:21:38.454Z,57.77
2018-12-09T05:24:07.798Z,63.53
2018-12-09T05:26:36.813Z,63.80
2018-12-09T05:29:05.735Z,65.70
2018-12-09T05:31:34.525Z,59.33
2018-12-09T05:34:03.453Z,66.30
2018-12-09T05:36:32.977Z,72.40
2018-12-09T05:39:02.025Z,72.43
2018-12-09T05:41:31.141Z,78.17
2018-12-09T05:44:00.053Z,92.13
2018-12-09T05:46:28.981Z,87.87
2018-12-09T05:48:57.867Z,90.40
2018-12-09T05:51:26.771Z,92.23
2018-12-09T05:53:55.597Z,99.57
2018-12-09T05:56:24.500Z,88.63
2018-12-09T05:58:53.840Z,94.10
2018-12-09T06:01:22.748Z,92.23
2018-12-09T06:03:51.717Z,108.37
2018-12-09T06:06:20.612Z,107.03
2018-12-09T06:08:49.519Z,120.43
2018-12-09T06:11:18.376Z,117.67
2018-12-09T06:13:47.289Z,117.17
2018-12-09T06:16:16.337Z,116.83
2018-12-09T06:18:45.361Z,113.97
2018-12-09T06:21:14.330Z,118.33
2018-12-09T06:23:43.141Z,131.60
2018-12-09T06:26:12.036Z,135.63
2018-12-09T06:28:40.933Z,123.97
2018-12-09T06:31:09.981Z,130.97
2018-12-09T06:33:39.201Z,139.30
2018-12-09T06:36:08.042Z,150.07
2018-12-09T06:38:36.956Z,153.67
2018-12-09T06:41:05.887Z,157.83
2018-12-09T06:43:34.657Z,147.70
2018-12-09T06:46:03.577Z,152.30
2018-12-09T06:48:32.478Z,153.93
2018-12-09T06:51:01.386Z,143.03
2018-12-09T06:53:30.491Z,152.80
2018-12-09T06:55:59.318Z,152.53
2018-12-09T06:58:28.245Z,150.33
2018-12-09T07:00:57.275Z,142.10
2018-12-09T07:03:26.406Z,147.00
2018-12-09T07:05:55.309Z,148.33
2018-12-09T07:08:24.530Z,144.97
2018-12-09T07:10:53.425Z,139.03
2018-12-09T07:13:22.268Z,135.03
2018-12-09T07:15:51.604Z,126.43
2018-12-09T07:18:20.608Z,132.90
2018-12-09T07:20:49.853Z,158.00
2018-12-09T07:23:18.749Z,155.70
2018-12-09T07:25:47.702Z,157.67
2018-12-09T07:28:16.733Z,148.23
2018-12-09T07:30:45.645Z,187.40
2018-12-09T07:33:15.142Z,200.93
2018-12-09T07:35:43.980Z,227.77
2018-12-09T07:38:12.797Z,255.30
2018-12-09T07:40:41.715Z,229.93
2018-12-09T07:43:10.645Z,198.43
2018-12-09T07:45:39.573Z,181.20
2018-12-09T07:48:08.570Z,155.33
2018-12-09T07:50:37.463Z,153.97
2018-12-09T07:53:06.549Z,146.90
2018-12-09T07:55:35.328Z,140.13
2018-12-09T07:58:04.233Z,134.80
2018-12-09T08:00:33.169Z,122.20
2018-12-09T08:03:02.105Z,114.53
2018-12-09T08:05:31.518Z,105.37
2018-12-09T08:08:00.469Z,103.43
2018-12-09T08:10:29.417Z,107.30
2018-12-09T08:12:58.326Z,99.87
2018-12-09T08:15:27.249Z,101.93
2018-12-09T08:17:56.249Z,99.70
2018-12-09T08:20:25.156Z,101.80
2018-12-09T08:22:54.050Z,104.23
2018-12-09T08:25:23.114Z,110.47
2018-12-09T08:27:52.132Z,103.10
2018-12-09T08:30:21.045Z,106.90
2018-12-09T08:32:49.953Z,103.53
2018-12-09T08:35:18.877Z,111.20
2018-12-09T08:37:47.662Z,111.33
2018-12-09T08:40:16.588Z,103.37
2018-12-09T08:42:45.595Z,108.57
2018-12-09T08:45:14.505Z,108.53
2018-12-09T08:47:43.531Z,112.73
2018-12-09T08:50:12.362Z,112.53
2018-12-09T08:52:41.309Z,126.03
2018-12-09T08:55:10.357Z,141.73
2018-12-09T08:57:39.309Z,124.27
2018-12-09T09:00:08.248Z,122.60
2018-12-09T09:02:37.615Z,122.10
2018-12-09T09:05:06.906Z,114.70
2018-12-09T09:07:35.798Z,117.13
2018-12-09T09:10:05.429Z,119.37
2018-12-09T09:12:34.392Z,123.10
2018-12-09T09:15:03.453Z,119.23
2018-12-09T09:17:32.438Z,122.83
2018-12-09T09:20:01.267Z,116.47
2018-12-09T09:22:30.978Z,114.73
2018-12-09T09:24:59.878Z,119.93
2018-12-09T09:27:28.789Z,125.10
2018-12-09T09:29:57.697Z,131.33
2018-12-09T09:32:26.525Z,129.73
2018-12-09T09:34:55.460Z,126.97
2018-12-09T09:37:24.474Z,116.20
2018-12-09T09:39:53.383Z,104.33
2018-12-09T09:42:22.373Z,98.17
2018-12-09T09:44:51.297Z,102.97
2018-12-09T09:47:20.148Z,98.00
2018-12-09T09:49:49.168Z,109.13
2018-12-09T09:52:18.063Z,99.30
2018-12-09T09:54:47.066Z,103.97
2018-12-09T09:57:16.064Z,109.43
2018-12-09T09:59:44.957Z,106.10
2018-12-09T10:02:13.877Z,99.13
2018-12-09T10:04:42.673Z,105.80
2018-12-09T10:07:11.673Z,106.10
2018-12-09T10:09:40.682Z,103.40
2018-12-09T10:12:09.502Z,123.63
2018-12-09T10:14:38.384Z,133.20
2018-12-09T10:17:07.405Z,122.70
2018-12-09T10:19:36.304Z,118.73
2018-12-09T10:22:05.233Z,101.77
2018-12-09T10:24:40.806Z,95.30
2018-12-09T10:27:09.717Z,91.13
2018-12-09T10:29:39.016Z,96.23
2018-12-09T10:32:07.828Z,97.07
2018-12-09T10:34:38.944Z,81.23
2018-12-09T10:37:07.681Z,83.73
2018-12-09T10:39:36.482Z,86.10
2018-12-09T10:42:05.387Z,87.70
2018-12-09T10:44:34.253Z,83.50
2018-12-09T10:47:03.356Z,80.13
2018-12-09T10:49:32.385Z,80.07
2018-12-09T10:52:01.313Z,79.50
2018-12-09T10:54:30.225Z,79.90
2018-12-09T10:56:59.324Z,73.90
2018-12-09T10:59:28.109Z,74.13
2018-12-09T11:02:01.493Z,73.33
2018-12-09T11:04:30.485Z,71.23
2018-12-09T11:06:59.372Z,70.03
2018-12-09T11:09:28.284Z,69.07
2018-12-09T11:11:57.313Z,75.27
2018-12-09T11:14:26.122Z,66.60
2018-12-09T11:16:55.056Z,71.30
2018-12-09T11:19:23.954Z,60.20
2018-12-09T11:21:52.861Z,59.57
2018-12-09T11:24:21.690Z,56.53
2018-12-09T11:26:50.472Z,53.77
2018-12-09T11:29:19.378Z,55.43
2018-12-09T11:31:48.175Z,62.50
2018-12-09T11:34:17.073Z,59.80
2018-12-09T11:36:45.965Z,57.13
2018-12-09T11:39:14.846Z,62.17
2018-12-09T11:41:43.742Z,67.60
2018-12-09T11:44:12.601Z,65.40
2018-12-09T11:46:41.624Z,56.23
2018-12-09T11:49:10.587Z,65.43
2018-12-09T11:51:39.661Z,63.93
2018-12-09T11:54:08.593Z,67.43
2018-12-09T11:56:37.503Z,64.07
2018-12-09T11:59:06.394Z,43.93
2018-12-09T12:01:35.301Z,35.77
2018-12-09T12:04:04.134Z,37.63
2018-12-09T12:06:33.061Z,41.00
2018-12-09T12:09:02.076Z,37.63
2018-12-09T12:11:31.604Z,40.30
2018-12-09T12:14:00.518Z,39.57
2018-12-09T12:16:29.337Z,38.23
2018-12-09T12:18:58.255Z,41.50
2018-12-09T12:21:27.152Z,37.50
2018-12-09T12:23:56.045Z,46.70
2018-12-09T12:26:24.873Z,41.60
2018-12-09T12:28:53.991Z,40.50
2018-12-09T12:31:22.778Z,41.60
2018-12-09T12:33:51.599Z,42.40
2018-12-09T12:36:20.611Z,45.77
2018-12-09T12:38:50.570Z,42.53
2018-12-09T12:41:21.417Z,42.93
2018-12-09T12:43:51.017Z,45.47
2018-12-09T12:46:20.049Z,48.40
2018-12-09T12:48:49.262Z,61.73
2018-12-09T12:51:18.338Z,59.30
2018-12-09T12:53:47.374Z,56.17
2018-12-09T12:56:16.230Z,64.33
2018-12-09T12:58:45.149Z,62.23
2018-12-09T13:01:14.761Z,57.27
2018-12-09T13:03:43.566Z,60.03
2018-12-09T13:06:13.430Z,54.53
2018-12-09T13:08:42.285Z,63.83
2018-12-09T13:11:11.291Z,61.10
2018-12-09T13:13:40.133Z,57.90
2018-12-09T13:16:11.945Z,61.03
2018-12-09T13:18:40.958Z,64.60
2018-12-09T13:21:09.784Z,61.07
2018-12-09T13:23:38.696Z,55.43
2018-12-09T13:26:07.593Z,55.53
2018-12-09T13:28:36.512Z,51.90
2018-12-09T13:31:05.333Z,59.50
2018-12-09T13:33:34.230Z,48.73
2018-12-09T13:36:03.982Z,47.27
2018-12-09T13:38:32.904Z,46.37
2018-12-09T13:41:01.843Z,51.37
2018-12-09T13:43:30.773Z,48.47
2018-12-09T13:45:59.685Z,43.07
2018-12-09T13:48:28.686Z,41.63
2018-12-09T13:50:57.622Z,39.63
2018-12-09T13:53:26.733Z,35.50
2018-12-09T13:55:55.653Z,38.53
2018-12-09T13:58:24.559Z,39.80
2018-12-09T14:00:53.529Z,38.27
2018-12-09T14:03:22.429Z,42.83
2018-12-09T14:05:51.351Z,37.50
2018-12-09T14:08:20.257Z,37.53
2018-12-09T14:10:49.257Z,39.20
2018-12-09T14:13:18.150Z,47.77
2018-12-09T14:15:47.054Z,55.43
2018-12-09T14:18:16.097Z,54.90
2018-12-09T14:20:44.911Z,50.50
2018-12-09T14:23:13.811Z,49.03
2018-12-09T14:25:42.733Z,52.90
2018-12-09T14:28:11.649Z,53.83
2018-12-09T14:30:40.605Z,48.93
2018-12-09T14:33:09.649Z,51.77
2018-12-09T14:35:38.546Z,54.10
2018-12-09T14:38:07.362Z,60.23
2018-12-09T14:40:36.378Z,59.20
2018-12-09T14:43:05.272Z,65.03
2018-12-09T14:45:35.182Z,67.47
2018-12-09T14:48:04.185Z,73.27
2018-12-09T14:50:33.075Z,67.80
2018-12-09T14:53:01.972Z,65.40
2018-12-09T14:55:31.108Z,63.73
2018-12-09T14:58:00.030Z,73.70
2018-12-09T15:00:28.969Z,76.47
2018-12-09T15:02:57.752Z,74.93
2018-12-09T15:05:26.562Z,75.23
2018-12-09T15:07:55.466Z,78.97
2018-12-09T15:10:24.294Z,79.47
2018-12-09T15:12:53.209Z,89.37
2018-12-09T15:15:22.137Z,89.50
2018-12-09T15:17:51.133Z,96.03
2018-12-09T15:20:20.148Z,98.43
2018-12-09T15:22:49.158Z,117.60
2018-12-09T15:25:18.049Z,181.20
2018-12-09T15:27:46.961Z,186.87
2018-12-09T15:30:15.908Z,212.77
2018-12-09T15:32:44.797Z,244.47
2018-12-09T15:35:13.781Z,295.37
2018-12-09T15:37:42.790Z,297.83
2018-12-09T15:40:11.716Z,273.60
2018-12-09T15:42:40.713Z,239.47
2018-12-09T15:45:09.766Z,224.43
2018-12-09T15:47:38.768Z,225.17
2018-12-09T15:50:09.036Z,246.70
2018-12-09T15:52:37.973Z,216.87
2018-12-09T15:55:07.050Z,177.37
2018-12-09T15:57:35.973Z,170.53
2018-12-09T16:00:05.529Z,154.23
2018-12-09T16:02:34.571Z,160.50
2018-12-09T16:05:03.691Z,160.80
2018-12-09T16:07:32.690Z,192.53
2018-12-09T16:10:01.733Z,227.67
2018-12-09T16:12:30.608Z,203.53
2018-12-09T16:14:59.509Z,228.50
2018-12-09T16:17:28.462Z,243.23
2018-12-09T16:19:57.466Z,266.43
2018-12-09T16:22:26.236Z,260.67
2018-12-09T16:24:55.272Z,255.83
2018-12-09T16:27:24.185Z,274.70
2018-12-09T16:29:53.012Z,295.23
2018-12-09T16:32:21.936Z,308.87
2018-12-09T16:34:50.850Z,301.20
2018-12-09T16:37:19.778Z,308.57
2018-12-09T16:39:48.910Z,378.93
2018-12-09T16:42:17.815Z,446.47
2018-12-09T16:44:46.712Z,456.63
2018-12-09T16:47:15.554Z,442.87
2018-12-09T16:49:44.391Z,425.30
2018-12-09T16:52:13.480Z,419.30
2018-12-09T16:54:42.378Z,400.30
2018-12-09T16:57:11.405Z,399.67
2018-12-09T16:59:40.289Z,393.40
2018-12-09T17:02:09.202Z,360.23
2018-12-09T17:04:38.217Z,319.07
2018-12-09T17:07:06.995Z,293.43
2018-12-09T17:09:35.915Z,204.87
2018-12-09T17:12:05.949Z,192.37
2018-12-09T17:14:34.798Z,194.80
2018-12-09T17:17:03.734Z,194.67
2018-12-09T17:19:32.746Z,202.90
2018-12-09T17:22:02.738Z,190.23
2018-12-09T17:24:31.653Z,182.77
2018-12-09T17:27:00.651Z,189.03
2018-12-09T17:29:29.584Z,161.53
2018-12-09T17:31:58.503Z,136.03
2018-12-09T17:34:27.534Z,125.63
2018-12-09T17:36:56.449Z,123.17
2018-12-09T17:39:25.452Z,128.73
2018-12-09T17:41:54.397Z,111.83
2018-12-09T17:44:24.282Z,117.33
2018-12-09T17:46:53.440Z,120.57
2018-12-09T17:49:22.493Z,121.57
2018-12-09T17:51:52.022Z,132.13
2018-12-09T17:54:21.344Z,128.23
2018-12-09T17:56:50.901Z,126.50
2018-12-09T17:59:19.833Z,136.23
2018-12-09T18:01:49.710Z,132.80
2018-12-09T18:04:18.537Z,139.90
2018-12-09T18:06:47.633Z,142.97
2018-12-09T18:09:17.085Z,144.60
2018-12-09T18:11:46.008Z,159.13
2018-12-09T18:14:15.067Z,153.67
2018-12-09T18:16:44.114Z,166.93
2018-12-09T18:19:14.173Z,170.00
2018-12-09T18:21:43.031Z,165.93
2018-12-09T18:24:11.965Z,155.57
2018-12-09T18:26:40.789Z,148.77
2018-12-09T18:29:10.461Z,152.40
2018-12-09T18:31:40.145Z,162.60
2018-12-09T18:34:10.083Z,152.77
2018-12-09T18:36:39.141Z,157.07
2018-12-09T18:39:08.805Z,150.23
2018-12-09T18:41:37.617Z,158.67
2018-12-09T18:44:06.926Z,163.57
2018-12-09T18:46:35.841Z,174.87
2018-12-09T18:49:04.767Z,168.60
2018-12-09T18:51:33.690Z,180.73
2018-12-09T18:54:02.512Z,180.80
2018-12-09T18:56:31.670Z,190.60
2018-12-09T18:59:00.660Z,197.50
2018-12-09T19:01:30.292Z,191.17
2018-12-09T19:03:59.228Z,194.03
2018-12-09T19:06:28.163Z,191.87
2018-12-09T19:08:57.146Z,212.10
2018-12-09T19:11:26.224Z,214.27
2018-12-09T19:13:55.903Z,217.57
2018-12-09T19:16:25.871Z,215.87
2018-12-09T19:18:54.773Z,212.03
2018-12-09T19:21:23.731Z,221.27
2018-12-09T19:23:52.622Z,225.43
2018-12-09T19:26:21.531Z,217.60
2018-12-09T19:28:50.441Z,236.97
2018-12-09T19:31:19.340Z,247.07
2018-12-09T19:33:48.252Z,256.70
2018-12-09T19:36:17.173Z,243.47
2018-12-09T19:38:46.100Z,258.20
2018-12-09T19:41:15.055Z,254.83
2018-12-09T19:43:44.161Z,245.10
2018-12-09T19:46:14.161Z,231.57
2018-12-09T19:48:43.057Z,237.53
2018-12-09T19:51:12.035Z,225.57
2018-12-09T19:53:40.898Z,246.60
2018-12-09T19:56:09.930Z,263.67
2018-12-09T19:58:38.874Z,272.67
2018-12-09T20:01:07.916Z,300.00
2018-12-09T20:03:36.737Z,325.50
2018-12-09T20:06:05.593Z,317.60
2018-12-09T20:08:34.500Z,327.43
2018-12-09T20:11:03.354Z,338.60
2018-12-09T20:13:32.305Z,347.67
2018-12-09T20:16:01.229Z,351.60
2018-12-09T20:18:30.139Z,352.77
2018-12-09T20:20:58.984Z,348.27
2018-12-09T20:23:27.973Z,340.17
2018-12-09T20:25:56.803Z,328.83
2018-12-09T20:28:25.601Z,349.03
2018-12-09T20:30:54.401Z,316.57
2018-12-09T20:33:23.334Z,319.10
2018-12-09T20:35:52.242Z,293.50
2018-12-09T20:38:22.783Z,283.10
2018-12-09T20:40:51.569Z,255.00
2018-12-09T20:43:20.776Z,277.97
2018-12-09T20:45:49.688Z,274.37
2018-12-09T20:48:18.574Z,289.27
2018-12-09T20:50:47.417Z,267.20
2018-12-09T20:53:16.454Z,249.50
2018-12-09T20:55:45.349Z,224.77
2018-12-09T20:58:14.298Z,216.67
2018-12-09T21:00:43.225Z,197.80
2018-12-09T21:03:12.049Z,181.10
2018-12-09T21:05:40.884Z,162.67
2018-12-09T21:08:09.866Z,143.67
2018-12-09T21:10:38.750Z,140.03
2018-12-09T21:13:07.653Z,125.23
2018-12-09T21:15:36.562Z,130.57
2018-12-09T21:18:05.486Z,128.43
2018-12-09T21:20:34.420Z,140.73
2018-12-09T21:23:03.447Z,139.37
2018-12-09T21:25:32.360Z,133.70
2018-12-09T21:28:01.169Z,132.27
2018-12-09T21:30:30.079Z,129.53
2018-12-09T21:32:59.005Z,128.77
2018-12-09T21:35:29.266Z,138.07
2018-12-09T21:37:58.278Z,122.37
2018-12-09T21:40:27.096Z,128.20
2018-12-09T21:42:56.004Z,121.93
2018-12-09T21:45:25.064Z,120.13
2018-12-09T21:47:54.063Z,119.27
2018-12-09T21:50:24.005Z,110.80
2018-12-09T21:52:53.025Z,113.50
2018-12-09T21:55:22.127Z,115.07
2018-12-09T21:57:51.123Z,128.63
2018-12-09T22:00:20.037Z,130.00
2018-12-09T22:02:48.954Z,128.67
2018-12-09T22:05:17.865Z,129.23
2018-12-09T22:07:46.805Z,128.50
2018-12-09T22:10:15.857Z,130.97
2018-12-09T22:12:44.901Z,127.23
2018-12-09T22:15:13.800Z,117.20
2018-12-09T22:17:42.776Z,116.70
2018-12-09T22:20:11.603Z,120.10
2018-12-09T22:22:40.520Z,120.50
2018-12-09T22:25:09.444Z,117.63
2018-12-09T22:27:38.345Z,125.27
2018-12-09T22:30:07.529Z,113.07
2018-12-09T22:32:36.440Z,120.97
2018-12-09T22:35:05.917Z,125.33
2018-12-09T22:37:34.808Z,135.27
2018-12-09T22:40:04.417Z,131.87
2018-12-09T22:42:33.226Z,120.00
2018-12-09T22:45:02.106Z,121.17
2018-12-09T22:47:31.192Z,127.57
2018-12-09T22:50:00.137Z,115.27
2018-12-09T22:52:29.025Z,108.60
2018-12-09T22:54:57.837Z,107.70
2018-12-09T22:57:26.869Z,102.93
2018-12-09T22:59:55.888Z,91.00
2018-12-09T23:02:30.354Z,93.73
2018-12-09T23:04:59.274Z,92.00
2018-12-09T23:07:33.626Z,89.07
2018-12-09T23:10:02.738Z,79.90
2018-12-09T23:12:31.727Z,87.27
2018-12-09T23:15:00.625Z,91.80
2018-12-09T23:17:29.650Z,90.70
2018-12-09T23:19:58.548Z,100.67
2018-12-09T23:22:27.470Z,98.60
2018-12-09T23:24:56.274Z,92.93
2018-12-09T23:27:25.461Z,92.83
2018-12-09T23:29:54.348Z,91.73
2018-12-09T23:32:23.281Z,89.00
2018-12-09T23:34:52.280Z,83.47
2018-12-09T23:37:21.068Z,86.33
2018-12-09T23:39:49.963Z,87.13
2018-12-09T23:42:18.849Z,74.67
2018-12-09T23:44:47.784Z,82.17
2018-12-09T23:47:16.722Z,76.90
2018-12-09T23:49:45.617Z,72.50
2018-12-09T23:52:14.961Z,88.10
2018-12-09T23:54:43.755Z,78.13
2018-12-09T23:57:12.598Z,78.03
2018-12-09T23:59:41.498Z,77.87
